createdAt,value
2018-09-24T00:00:18.172Z,1.53
2018-09-24T00:02:45.293Z,1.80
2018-09-24T00:05:13.183Z,1.90
2018-09-24T00:07:40.463Z,1.40
2018-09-24T00:10:07.768Z,1.57
2018-09-24T00:12:34.949Z,1.63
2018-09-24T00:15:02.275Z,1.50
2018-09-24T00:17:29.450Z,1.60
2018-09-24T00:19:56.629Z,1.60
2018-09-24T00:22:23.850Z,1.73
2018-09-24T00:24:51.076Z,1.60
2018-09-24T00:27:18.254Z,1.80
2018-09-24T00:29:45.477Z,1.60
2018-09-24T00:32:12.658Z,1.70
2018-09-24T00:34:40.084Z,1.70
2018-09-24T00:37:07.247Z,1.50
2018-09-24T00:39:34.411Z,1.60
2018-09-24T00:42:01.710Z,1.73
2018-09-24T00:44:29.047Z,1.77
2018-09-24T00:46:56.257Z,1.97
2018-09-24T00:49:23.521Z,1.80
2018-09-24T00:51:50.723Z,1.60
2018-09-24T00:54:18.071Z,1.60
2018-09-24T00:56:45.334Z,1.80
2018-09-24T00:59:12.636Z,2.37
2018-09-24T01:01:39.854Z,1.80
2018-09-24T01:04:07.190Z,2.00
2018-09-24T01:06:34.490Z,2.03
2018-09-24T01:09:01.916Z,2.10
2018-09-24T01:11:29.301Z,2.17
2018-09-24T01:13:56.582Z,2.20
2018-09-24T01:16:23.843Z,2.40
2018-09-24T01:18:51.064Z,2.33
2018-09-24T01:21:18.289Z,2.30
2018-09-24T01:23:45.521Z,2.50
2018-09-24T01:26:12.662Z,2.33
2018-09-24T01:28:39.977Z,2.20
2018-09-24T01:31:07.219Z,2.00
2018-09-24T01:33:34.413Z,2.40
2018-09-24T01:36:01.656Z,2.67
2018-09-24T01:38:28.828Z,2.20
2018-09-24T01:40:56.059Z,2.53
2018-09-24T01:43:23.242Z,2.23
2018-09-24T01:45:50.382Z,2.23
2018-09-24T01:48:17.562Z,2.00
2018-09-24T01:50:44.737Z,2.20
2018-09-24T01:53:11.907Z,2.17
2018-09-24T01:55:39.049Z,2.23
2018-09-24T01:58:06.264Z,2.13
2018-09-24T02:00:33.548Z,2.07
2018-09-24T02:03:00.768Z,2.30
2018-09-24T02:05:28.022Z,2.40
2018-09-24T02:07:55.281Z,2.60
2018-09-24T02:10:23.688Z,2.57
2018-09-24T02:12:52.239Z,2.53
2018-09-24T02:15:26.118Z,2.30
2018-09-24T02:17:53.334Z,2.57
2018-09-24T02:20:20.514Z,2.30
2018-09-24T02:22:47.698Z,2.47
2018-09-24T02:25:14.834Z,3.03
2018-09-24T02:27:41.992Z,2.60
2018-09-24T02:30:12.829Z,2.70
2018-09-24T02:32:39.971Z,3.30
2018-09-24T02:35:07.187Z,3.20
2018-09-24T02:37:34.378Z,2.90
2018-09-24T02:40:01.614Z,3.20
2018-09-24T02:42:28.822Z,3.10
2018-09-24T02:44:57.361Z,2.80
2018-09-24T02:47:26.592Z,3.20
2018-09-24T02:49:53.765Z,2.60
2018-09-24T02:52:20.882Z,2.50
2018-09-24T02:54:48.074Z,2.53
2018-09-24T02:57:15.205Z,2.57
2018-09-24T02:59:44.108Z,2.60
2018-09-24T03:02:11.406Z,2.97
2018-09-24T03:04:38.601Z,3.23
2018-09-24T03:07:05.887Z,2.73
2018-09-24T03:09:34.178Z,3.77
2018-09-24T03:12:01.375Z,2.80
2018-09-24T03:14:28.597Z,2.60
2018-09-24T03:16:55.933Z,2.87
2018-09-24T03:19:23.361Z,2.90
2018-09-24T03:21:50.667Z,3.00
2018-09-24T03:24:17.907Z,2.90
2018-09-24T03:26:45.047Z,2.90
2018-09-24T03:29:23.127Z,2.73
2018-09-24T03:31:50.647Z,3.70
2018-09-24T03:34:18.480Z,3.20
2018-09-24T03:36:46.546Z,2.63
2018-09-24T03:39:13.824Z,3.50
2018-09-24T03:41:41.151Z,3.07
2018-09-24T03:44:08.667Z,3.00
2018-09-24T03:46:35.907Z,2.90
2018-09-24T03:49:03.131Z,3.30
2018-09-24T03:51:30.327Z,2.90
2018-09-24T03:53:57.629Z,2.60
2018-09-24T03:56:24.786Z,4.07
2018-09-24T03:58:51.990Z,3.63
2018-09-24T04:01:19.181Z,4.10
2018-09-24T04:03:46.412Z,3.30
2018-09-24T04:06:19.242Z,2.90
2018-09-24T04:08:52.315Z,3.23
2018-09-24T04:11:25.346Z,4.07
2018-09-24T04:13:58.129Z,3.77
2018-09-24T04:16:31.073Z,3.40
2018-09-24T04:19:03.891Z,2.90
2018-09-24T04:21:36.725Z,2.80
2018-09-24T04:24:09.550Z,2.67
2018-09-24T04:26:42.294Z,2.67
2018-09-24T04:29:15.059Z,2.77
2018-09-24T04:31:48.013Z,2.73
2018-09-24T04:34:20.887Z,2.90
2018-09-24T04:36:53.835Z,2.70
2018-09-24T04:39:26.612Z,2.67
2018-09-24T04:41:59.246Z,2.60
2018-09-24T04:44:32.121Z,2.60
2018-09-24T04:47:05.039Z,3.00
2018-09-24T04:49:37.933Z,2.97
2018-09-24T04:52:10.853Z,2.70
2018-09-24T04:54:44.521Z,2.80
2018-09-24T04:57:17.313Z,3.30
2018-09-24T04:59:50.319Z,3.80
2018-09-24T05:02:23.181Z,4.23
2018-09-24T05:04:56.145Z,3.40
2018-09-24T05:07:28.976Z,3.60
2018-09-24T05:10:02.099Z,4.20
2018-09-24T05:12:34.881Z,3.30
2018-09-24T05:15:07.898Z,4.90
2018-09-24T05:17:40.701Z,7.10
2018-09-24T05:20:13.706Z,4.20
2018-09-24T05:22:46.878Z,4.00
2018-09-24T05:25:19.883Z,4.40
2018-09-24T05:27:52.745Z,4.20
2018-09-24T05:30:25.535Z,4.67
2018-09-24T05:32:58.721Z,4.03
2018-09-24T05:35:31.733Z,4.00
2018-09-24T05:38:04.739Z,4.27
2018-09-24T05:40:37.631Z,3.87
2018-09-24T05:43:10.390Z,4.10
2018-09-24T05:45:43.350Z,3.57
2018-09-24T05:48:16.100Z,4.43
2018-09-24T05:50:48.917Z,4.50
2018-09-24T05:53:21.671Z,4.60
2018-09-24T05:55:54.587Z,4.93
2018-09-24T05:58:27.360Z,4.67
2018-09-24T06:01:00.202Z,4.33
2018-09-24T06:03:33.004Z,4.30
2018-09-24T06:06:05.884Z,4.50
2018-09-24T06:08:38.792Z,4.30
2018-09-24T06:11:13.281Z,4.90
2018-09-24T06:13:46.521Z,4.03
2018-09-24T06:16:19.431Z,3.33
2018-09-24T06:18:52.194Z,4.20
2018-09-24T06:21:25.070Z,3.50
2018-09-24T06:23:58.021Z,4.03
2018-09-24T06:26:31.029Z,4.00
2018-09-24T06:29:03.841Z,3.97
2018-09-24T06:31:37.147Z,4.30
2018-09-24T06:34:09.957Z,3.70
2018-09-24T06:36:42.695Z,3.50
2018-09-24T06:39:15.647Z,3.77
2018-09-24T06:41:48.596Z,4.07
2018-09-24T06:44:21.345Z,3.73
2018-09-24T06:46:54.102Z,3.90
2018-09-24T06:49:26.961Z,4.23
2018-09-24T06:51:59.721Z,3.83
2018-09-24T06:54:32.503Z,3.80
2018-09-24T06:57:05.674Z,4.07
2018-09-24T06:59:38.658Z,5.07
2018-09-24T07:02:11.524Z,4.40
2018-09-24T07:04:44.250Z,4.30
2018-09-24T07:07:17.689Z,4.33
2018-09-24T07:09:51.492Z,3.77
2018-09-24T07:12:24.358Z,4.57
2018-09-24T07:14:57.071Z,3.70
2018-09-24T07:17:30.103Z,4.17
2018-09-24T07:20:03.058Z,3.13
2018-09-24T07:22:36.065Z,3.03
2018-09-24T07:25:08.996Z,3.50
2018-09-24T07:27:41.980Z,2.70
2018-09-24T07:30:14.763Z,3.30
2018-09-24T07:32:47.574Z,3.27
2018-09-24T07:35:20.640Z,2.57
2018-09-24T07:37:53.592Z,3.07
2018-09-24T07:40:26.551Z,3.13
2018-09-24T07:42:59.708Z,2.50
2018-09-24T07:45:32.627Z,2.87
2018-09-24T07:48:05.554Z,3.10
2018-09-24T07:50:38.846Z,3.10
2018-09-24T07:53:11.691Z,2.03
2018-09-24T07:55:44.550Z,2.90
2018-09-24T07:58:17.568Z,2.50
2018-09-24T08:00:50.323Z,2.33
2018-09-24T08:03:23.383Z,2.40
2018-09-24T08:05:56.305Z,2.30
2018-09-24T08:08:31.358Z,2.47
2018-09-24T08:11:04.933Z,2.57
2018-09-24T08:13:38.362Z,2.20
2018-09-24T08:16:11.479Z,2.20
2018-09-24T08:18:44.178Z,1.90
2018-09-24T08:21:17.254Z,2.30
2018-09-24T08:23:50.162Z,2.63
2018-09-24T08:26:23.022Z,1.77
2018-09-24T08:28:55.933Z,2.10
2018-09-24T08:31:28.805Z,1.90
2018-09-24T08:34:01.669Z,1.70
2018-09-24T08:36:34.609Z,1.90
2018-09-24T08:39:07.667Z,2.30
2018-09-24T08:41:40.702Z,2.90
2018-09-24T08:44:13.863Z,1.80
2018-09-24T08:46:46.525Z,1.83
2018-09-24T08:49:19.504Z,2.40
2018-09-24T08:51:52.254Z,2.20
2018-09-24T08:54:25.072Z,2.13
2018-09-24T08:56:57.811Z,1.90
2018-09-24T08:59:30.742Z,1.80
2018-09-24T09:02:03.846Z,1.50
2018-09-24T09:04:36.763Z,1.83
2018-09-24T09:07:09.776Z,1.70
2018-09-24T09:09:42.767Z,2.17
2018-09-24T09:12:15.586Z,1.50
2018-09-24T09:14:48.553Z,2.43
2018-09-24T09:17:21.477Z,1.53
2018-09-24T09:19:58.082Z,1.30
2018-09-24T09:22:30.873Z,1.77
2018-09-24T09:25:03.718Z,1.87
2018-09-24T09:27:36.684Z,1.70
2018-09-24T09:30:09.911Z,1.60
2018-09-24T09:32:42.836Z,1.70
2018-09-24T09:35:15.733Z,2.27
2018-09-24T09:37:48.713Z,1.50
2018-09-24T09:40:21.751Z,1.73
2018-09-24T09:42:54.879Z,1.57
2018-09-24T09:45:27.699Z,1.30
2018-09-24T09:48:00.953Z,2.30
2018-09-24T09:50:33.732Z,3.37
2018-09-24T09:53:06.578Z,1.57
2018-09-24T09:55:39.666Z,1.50
2018-09-24T09:58:12.579Z,1.53
2018-09-24T10:00:45.288Z,1.60
2018-09-24T10:03:18.173Z,1.30
2018-09-24T10:05:51.128Z,1.50
2018-09-24T10:08:24.601Z,2.10
2018-09-24T10:10:57.936Z,1.90
2018-09-24T10:13:30.715Z,1.80
2018-09-24T10:16:03.719Z,1.93
2018-09-24T10:18:37.041Z,1.50
2018-09-24T10:21:09.963Z,1.80
2018-09-24T10:23:43.781Z,1.40
2018-09-24T10:26:16.973Z,1.53
2018-09-24T10:28:49.952Z,1.33
2018-09-24T10:31:22.834Z,1.10
2018-09-24T10:33:55.790Z,1.33
2018-09-24T10:36:28.709Z,1.23
2018-09-24T10:39:01.558Z,1.00
2018-09-24T10:41:34.503Z,1.60
2018-09-24T10:44:07.460Z,1.90
2018-09-24T10:46:40.332Z,1.60
2018-09-24T10:49:13.227Z,1.30
2018-09-24T10:51:46.171Z,2.47
2018-09-24T10:54:19.246Z,1.33
2018-09-24T10:56:52.229Z,1.43
2018-09-24T10:59:25.080Z,1.50
2018-09-24T11:01:58.018Z,1.30
2018-09-24T11:04:31.227Z,1.43
2018-09-24T11:07:05.836Z,1.37
2018-09-24T11:09:39.282Z,1.40
2018-09-24T11:12:12.173Z,1.70
2018-09-24T11:14:45.157Z,1.40
2018-09-24T11:17:18.366Z,1.27
2018-09-24T11:19:51.090Z,1.30
2018-09-24T11:22:23.958Z,1.67
2018-09-24T11:24:56.802Z,1.00
2018-09-24T11:27:29.789Z,1.60
2018-09-24T11:30:02.728Z,1.53
2018-09-24T11:32:35.658Z,1.80
2018-09-24T11:35:08.575Z,1.50
2018-09-24T11:37:41.352Z,1.63
2018-09-24T11:40:14.105Z,1.50
2018-09-24T11:42:47.750Z,1.40
2018-09-24T11:45:20.640Z,1.80
2018-09-24T11:47:53.664Z,1.60
2018-09-24T11:50:26.704Z,1.40
2018-09-24T11:52:59.779Z,1.50
2018-09-24T11:55:32.829Z,1.10
2018-09-24T11:58:05.611Z,1.20
2018-09-24T12:00:38.600Z,1.60
2018-09-24T12:03:11.320Z,1.53
2018-09-24T12:05:44.509Z,1.50
2018-09-24T12:08:17.513Z,1.30
2018-09-24T12:10:50.268Z,1.50
2018-09-24T12:13:29.994Z,1.90
2018-09-24T12:16:03.001Z,2.40
2018-09-24T12:18:36.107Z,1.70
2018-09-24T12:21:09.033Z,1.20
2018-09-24T12:23:41.797Z,1.00
2018-09-24T12:26:14.831Z,1.40
2018-09-24T12:28:47.793Z,1.60
2018-09-24T12:31:20.916Z,6.17
2018-09-24T12:33:54.749Z,1.40
2018-09-24T12:36:27.742Z,1.63
2018-09-24T12:39:00.804Z,1.17
2018-09-24T12:41:33.726Z,1.20
2018-09-24T12:44:06.645Z,1.30
2018-09-24T12:46:39.532Z,1.40
2018-09-24T12:49:12.486Z,1.20
2018-09-24T12:51:45.673Z,1.30
2018-09-24T12:54:18.569Z,2.03
2018-09-24T12:56:51.469Z,1.40
2018-09-24T12:59:24.511Z,1.40
2018-09-24T13:01:57.466Z,1.10
2018-09-24T13:04:31.278Z,1.20
2018-09-24T13:07:04.371Z,1.77
2018-09-24T13:09:37.518Z,1.13
2018-09-24T13:12:10.348Z,1.43
2018-09-24T13:14:43.272Z,1.53
2018-09-24T13:17:16.196Z,1.80
2018-09-24T13:19:49.725Z,1.10
2018-09-24T13:22:22.626Z,1.30
2018-09-24T13:24:55.521Z,1.80
2018-09-24T13:27:28.443Z,1.20
2018-09-24T13:30:01.301Z,1.23
2018-09-24T13:32:34.243Z,1.23
2018-09-24T13:35:07.218Z,1.97
2018-09-24T13:37:40.856Z,1.13
2018-09-24T13:40:13.697Z,1.40
2018-09-24T13:42:46.546Z,1.50
2018-09-24T13:45:19.976Z,1.23
2018-09-24T13:47:52.794Z,1.30
2018-09-24T13:50:25.671Z,2.40
2018-09-24T13:52:58.770Z,1.47
2018-09-24T13:55:31.639Z,1.47
2018-09-24T13:58:04.640Z,1.30
2018-09-24T14:00:37.685Z,1.90
2018-09-24T14:03:10.625Z,1.63
2018-09-24T14:05:43.506Z,1.13
2018-09-24T14:08:16.462Z,2.30
2018-09-24T14:10:49.394Z,3.37
2018-09-24T14:13:22.925Z,1.67
2018-09-24T14:15:56.802Z,1.20
2018-09-24T14:18:30.386Z,1.80
2018-09-24T14:21:03.284Z,1.23
2018-09-24T14:23:36.218Z,1.57
2018-09-24T14:26:09.509Z,1.60
2018-09-24T14:28:42.587Z,1.77
2018-09-24T14:31:15.542Z,2.80
2018-09-24T14:33:48.527Z,1.60
2018-09-24T14:36:21.665Z,1.33
2018-09-24T14:38:54.969Z,1.27
2018-09-24T14:41:27.917Z,1.43
2018-09-24T14:44:00.936Z,1.40
2018-09-24T14:46:34.003Z,1.67
2018-09-24T14:49:07.066Z,1.47
2018-09-24T14:51:42.264Z,1.17
2018-09-24T14:54:18.529Z,1.40
2018-09-24T14:56:58.829Z,1.20
2018-09-24T14:59:38.946Z,1.73
2018-09-24T15:02:22.165Z,1.33
2018-09-24T15:04:57.816Z,1.60
2018-09-24T15:07:39.134Z,1.50
2018-09-24T15:10:12.205Z,1.40
2018-09-24T15:12:45.128Z,1.30
2018-09-24T15:15:18.072Z,1.50
2018-09-24T15:17:51.331Z,1.90
2018-09-24T15:20:24.276Z,1.70
2018-09-24T15:22:58.618Z,1.80
2018-09-24T15:25:31.913Z,1.40
2018-09-24T15:28:05.246Z,1.50
2018-09-24T15:30:38.355Z,1.57
2018-09-24T15:33:11.602Z,1.10
2018-09-24T15:35:44.450Z,1.70
2018-09-24T15:38:17.512Z,1.70
2018-09-24T15:40:50.572Z,1.60
2018-09-24T15:43:23.516Z,1.40
2018-09-24T15:45:56.500Z,1.47
2018-09-24T15:48:29.350Z,1.33
2018-09-24T15:51:02.885Z,1.30
2018-09-24T15:53:35.933Z,1.30
2018-09-24T15:56:09.456Z,1.10
2018-09-24T15:58:42.202Z,1.10
2018-09-24T16:01:15.235Z,1.40
2018-09-24T16:03:48.196Z,1.70
2018-09-24T16:06:21.054Z,1.10
2018-09-24T16:08:53.968Z,1.47
2018-09-24T16:11:26.975Z,1.53
2018-09-24T16:13:59.811Z,1.13
2018-09-24T16:16:33.021Z,2.17
2018-09-24T16:19:05.746Z,1.17
2018-09-24T16:21:38.587Z,1.20
2018-09-24T16:24:11.479Z,1.80
2018-09-24T16:26:44.488Z,1.37
2018-09-24T16:29:17.593Z,0.90
2018-09-24T16:31:50.729Z,1.27
2018-09-24T16:34:23.675Z,1.27
2018-09-24T16:36:56.458Z,1.20
2018-09-24T16:39:30.216Z,1.40
2018-09-24T16:42:04.477Z,1.93
2018-09-24T16:44:38.434Z,2.87
2018-09-24T16:47:15.706Z,2.00
2018-09-24T16:49:52.223Z,1.30
2018-09-24T16:52:27.693Z,1.50
2018-09-24T16:55:21.592Z,1.50
2018-09-24T16:58:11.264Z,1.40
2018-09-24T17:00:50.208Z,1.22
2018-09-24T17:20:24.723Z,1.73
2018-09-24T17:23:12.163Z,2.37
2018-09-24T17:31:20.905Z,1.80
2018-09-24T17:34:00.763Z,1.30
2018-09-24T17:36:43.889Z,2.17
2018-09-24T17:43:07.838Z,1.40
2018-09-24T17:45:49.168Z,1.30
2018-09-24T17:48:46.723Z,1.50
2018-09-24T18:05:01.447Z,1.20
2018-09-24T18:07:34.149Z,1.40
2018-09-24T18:10:07.113Z,1.70
2018-09-24T18:12:40.014Z,1.53
2018-09-24T18:15:13.267Z,1.40
2018-09-24T18:17:46.209Z,1.70
2018-09-24T18:20:18.976Z,2.10
2018-09-24T18:22:51.781Z,1.20
2018-09-24T18:25:24.848Z,1.20
2018-09-24T18:27:58.188Z,1.30
2018-09-24T18:30:31.718Z,1.27
2018-09-24T18:33:04.701Z,1.30
2018-09-24T18:35:37.669Z,1.00
2018-09-24T18:38:10.681Z,1.20
2018-09-24T18:40:43.524Z,1.63
2018-09-24T18:43:16.246Z,0.90
2018-09-24T18:45:49.121Z,1.17
2018-09-24T18:48:21.878Z,1.30
2018-09-24T18:50:54.629Z,1.30
2018-09-24T18:53:27.622Z,1.40
2018-09-24T18:56:00.585Z,1.40
2018-09-24T18:58:33.493Z,1.43
2018-09-24T19:01:06.597Z,1.50
2018-09-24T19:03:39.651Z,1.30
2018-09-24T19:06:12.669Z,2.40
2018-09-24T19:08:45.562Z,2.00
2018-09-24T19:11:27.647Z,1.83
2018-09-24T19:13:52.470Z,1.40
2018-09-24T19:16:25.471Z,4.70
2018-09-24T19:18:58.354Z,1.87
2018-09-24T19:21:31.553Z,1.43
2018-09-24T19:24:04.773Z,1.30
2018-09-24T19:26:37.827Z,1.70
2018-09-24T19:29:10.821Z,1.33
2018-09-24T19:31:43.844Z,1.40
2018-09-24T19:34:16.834Z,1.27
2018-09-24T19:36:49.865Z,2.00
2018-09-24T19:39:22.973Z,1.90
2018-09-24T19:41:55.914Z,1.80
2018-09-24T19:44:28.773Z,2.07
2018-09-24T19:47:01.546Z,1.83
2018-09-24T19:49:34.517Z,1.50
2018-09-24T19:52:07.379Z,1.73
2018-09-24T19:54:40.386Z,1.80
2018-09-24T19:57:15.141Z,2.13
2018-09-24T19:59:48.085Z,1.67
2018-09-24T20:02:20.929Z,1.90
2018-09-24T20:04:53.983Z,1.90
2018-09-24T20:07:26.916Z,2.27
2018-09-24T20:10:00.069Z,2.03
2018-09-24T20:12:33.156Z,2.43
2018-09-24T20:15:06.274Z,2.10
2018-09-24T20:17:39.247Z,2.57
2018-09-24T20:20:12.272Z,2.47
2018-09-24T20:22:45.740Z,2.17
2018-09-24T20:25:18.915Z,2.33
2018-09-24T20:27:51.824Z,2.30
2018-09-24T20:30:24.702Z,3.70
2018-09-24T20:32:57.900Z,2.60
2018-09-24T20:35:30.971Z,3.53
2018-09-24T20:38:05.107Z,2.60
2018-09-24T20:40:38.220Z,2.77
2018-09-24T20:43:11.424Z,2.90
2018-09-24T20:45:44.588Z,2.87
2018-09-24T20:48:17.627Z,3.20
2018-09-24T20:50:50.633Z,4.20
2018-09-24T20:53:23.931Z,2.30
2018-09-24T20:55:57.328Z,2.30
2018-09-24T20:58:30.430Z,2.00
2018-09-24T21:01:03.502Z,2.10
2018-09-24T21:03:36.619Z,1.63
2018-09-24T21:06:09.644Z,1.80
2018-09-24T21:08:43.157Z,1.87
2018-09-24T21:11:16.451Z,1.70
2018-09-24T21:13:49.853Z,1.57
2018-09-24T21:16:22.877Z,1.80
2018-09-24T21:18:56.070Z,1.70
2018-09-24T21:21:28.942Z,1.30
2018-09-24T21:24:01.922Z,1.57
2018-09-24T21:26:35.134Z,1.90
2018-09-24T21:29:08.170Z,2.20
2018-09-24T21:31:41.190Z,2.50
2018-09-24T21:34:14.118Z,1.83
2018-09-24T21:36:47.231Z,2.40
2018-09-24T21:39:19.985Z,2.00
2018-09-24T21:41:52.955Z,2.10
2018-09-24T21:44:26.143Z,1.80
2018-09-24T21:46:59.747Z,1.73
2018-09-24T21:49:32.509Z,1.80
2018-09-24T21:52:05.526Z,1.73
2018-09-24T21:54:38.472Z,1.90
2018-09-24T21:57:12.424Z,1.80
2018-09-24T21:59:45.430Z,1.60
2018-09-24T22:02:18.209Z,1.70
2018-09-24T22:04:50.947Z,1.20
2018-09-24T22:07:23.825Z,1.50
2018-09-24T22:09:56.695Z,1.70
2018-09-24T22:12:29.664Z,1.80
2018-09-24T22:15:02.483Z,1.90
2018-09-24T22:17:36.246Z,1.87
2018-09-24T22:20:09.174Z,1.60
2018-09-24T22:22:42.001Z,1.43
2018-09-24T22:25:14.758Z,2.47
2018-09-24T22:27:47.652Z,1.30
2018-09-24T22:30:20.617Z,1.60
2018-09-24T22:32:53.573Z,1.50
2018-09-24T22:35:26.269Z,1.50
2018-09-24T22:37:59.274Z,1.67
2018-09-24T22:40:32.113Z,1.30
2018-09-24T22:43:05.167Z,1.37
2018-09-24T22:45:38.007Z,1.50
2018-09-24T22:48:11.031Z,1.50
2018-09-24T22:50:43.736Z,1.60
2018-09-24T22:53:16.455Z,1.30
2018-09-24T22:55:49.349Z,1.40
2018-09-24T22:58:22.118Z,1.27
2018-09-24T23:00:54.769Z,1.33
2018-09-24T23:03:27.536Z,1.93
2018-09-24T23:06:00.462Z,1.50
2018-09-24T23:08:33.183Z,1.40
2018-09-24T23:11:05.978Z,1.47
2018-09-24T23:13:38.846Z,1.43
2018-09-24T23:16:14.472Z,1.40
2018-09-24T23:18:47.456Z,1.20
2018-09-24T23:21:20.177Z,1.30
2018-09-24T23:23:52.857Z,1.20
2018-09-24T23:26:25.732Z,1.37
2018-09-24T23:28:58.734Z,1.43
2018-09-24T23:31:31.670Z,1.10
2018-09-24T23:34:04.636Z,1.13
2018-09-24T23:36:37.482Z,1.30
2018-09-24T23:39:12.731Z,1.40
2018-09-24T23:41:45.589Z,1.37
2018-09-24T23:44:18.556Z,1.47
2018-09-24T23:46:51.338Z,1.43
2018-09-24T23:49:24.429Z,1.30
2018-09-24T23:51:57.145Z,1.40
2018-09-24T23:54:30.078Z,1.50
2018-09-24T23:57:03.018Z,1.50
2018-09-24T23:59:35.793Z,1.50
